sensor_id;sensor_type;location;lat;lon;timestamp;temperature;humidity
59660;DHT22;45534;52.690;6.268;2022-12-05T00:00:56;4.20;99.90
59660;DHT22;45534;52.690;6.268;2022-12-05T00:03:22;4.20;99.90
59660;DHT22;45534;52.690;6.268;2022-12-05T00:05:47;4.20;99.90
59660;DHT22;45534;52.690;6.268;2022-12-05T00:08:13;4.20;99.90
59660;DHT22;45534;52.690;6.268;2022-12-05T00:10:39;4.20;99.90
59660;DHT22;45534;52.690;6.268;2022-12-05T00:13:05;4.20;99.90
59660;DHT22;45534;52.690;6.268;2022-12-05T00:15:34;4.20;99.90
59660;DHT22;45534;52.690;6.268;2022-12-05T00:18:00;4.20;99.90
59660;DHT22;45534;52.690;6.268;2022-12-05T00:20:26;4.30;99.90
59660;DHT22;45534;52.690;6.268;2022-12-05T00:22:51;4.20;99.90
59660;DHT22;45534;52.690;6.268;2022-12-05T00:25:17;4.30;99.90
59660;DHT22;45534;52.690;6.268;2022-12-05T00:27:43;4.30;99.90
59660;DHT22;45534;52.690;6.268;2022-12-05T00:30:09;4.30;99.90
59660;DHT22;45534;52.690;6.268;2022-12-05T00:32:34;4.30;99.90
59660;DHT22;45534;52.690;6.268;2022-12-05T00:35:00;4.30;99.90
59660;DHT22;45534;52.690;6.268;2022-12-05T00:37:26;4.30;99.90
59660;DHT22;45534;52.690;6.268;2022-12-05T00:39:51;4.30;99.90
59660;DHT22;45534;52.690;6.268;2022-12-05T00:42:17;4.30;99.90
59660;DHT22;45534;52.690;6.268;2022-12-05T00:44:42;4.30;99.90
59660;DHT22;45534;52.690;6.268;2022-12-05T00:47:08;4.30;99.90
59660;DHT22;45534;52.690;6.268;2022-12-05T00:49:34;4.30;99.90
59660;DHT22;45534;52.690;6.268;2022-12-05T00:51:59;4.30;99.90
59660;DHT22;45534;52.690;6.268;2022-12-05T00:54:25;4.30;99.90
59660;DHT22;45534;52.690;6.268;2022-12-05T00:56:51;4.30;99.90
59660;DHT22;45534;52.690;6.268;2022-12-05T00:59:20;4.40;99.90
59660;DHT22;45534;52.690;6.268;2022-12-05T01:01:47;4.30;99.90
59660;DHT22;45534;52.690;6.268;2022-12-05T01:04:19;4.40;99.90
59660;DHT22;45534;52.690;6.268;2022-12-05T01:06:45;4.40;99.90
59660;DHT22;45534;52.690;6.268;2022-12-05T01:09:17;4.40;99.90
59660;DHT22;45534;52.690;6.268;2022-12-05T01:11:43;4.40;99.90
59660;DHT22;45534;52.690;6.268;2022-12-05T01:14:10;4.40;99.90
59660;DHT22;45534;52.690;6.268;2022-12-05T01:16:38;4.40;99.90
59660;DHT22;45534;52.690;6.268;2022-12-05T01:19:12;4.40;99.90
59660;DHT22;45534;52.690;6.268;2022-12-05T01:21:38;4.40;99.90
59660;DHT22;45534;52.690;6.268;2022-12-05T01:24:04;4.40;99.90
59660;DHT22;45534;52.690;6.268;2022-12-05T01:26:30;4.50;99.90
59660;DHT22;45534;52.690;6.268;2022-12-05T01:28:55;4.50;99.90
59660;DHT22;45534;52.690;6.268;2022-12-05T01:31:25;4.50;99.90
59660;DHT22;45534;52.690;6.268;2022-12-05T01:33:53;4.50;99.90
59660;DHT22;45534;52.690;6.268;2022-12-05T01:36:20;4.60;99.90
59660;DHT22;45534;52.690;6.268;2022-12-05T01:38:46;4.50;99.90
59660;DHT22;45534;52.690;6.268;2022-12-05T01:41:15;4.60;99.90
59660;DHT22;45534;52.690;6.268;2022-12-05T01:44:04;4.60;99.90
59660;DHT22;45534;52.690;6.268;2022-12-05T01:46:32;4.60;99.90
59660;DHT22;45534;52.690;6.268;2022-12-05T01:51:50;4.60;99.90
59660;DHT22;45534;52.690;6.268;2022-12-05T01:54:18;4.70;99.90
59660;DHT22;45534;52.690;6.268;2022-12-05T01:56:47;4.70;99.90
59660;DHT22;45534;52.690;6.268;2022-12-05T01:59:15;4.70;99.90
59660;DHT22;45534;52.690;6.268;2022-12-05T02:01:41;4.70;99.90
59660;DHT22;45534;52.690;6.268;2022-12-05T02:04:07;4.70;99.90
59660;DHT22;45534;52.690;6.268;2022-12-05T02:06:33;4.70;99.90
59660;DHT22;45534;52.690;6.268;2022-12-05T02:08:59;4.70;99.90
59660;DHT22;45534;52.690;6.268;2022-12-05T02:11:27;4.70;99.90
59660;DHT22;45534;52.690;6.268;2022-12-05T02:14:13;4.70;99.90
59660;DHT22;45534;52.690;6.268;2022-12-05T02:16:49;4.70;99.90
59660;DHT22;45534;52.690;6.268;2022-12-05T02:22:41;4.70;99.90
59660;DHT22;45534;52.690;6.268;2022-12-05T02:43:32;4.70;99.90
59660;DHT22;45534;52.690;6.268;2022-12-05T02:46:05;4.70;99.90
59660;DHT22;45534;52.690;6.268;2022-12-05T02:48:34;4.70;99.90
59660;DHT22;45534;52.690;6.268;2022-12-05T02:51:01;4.70;99.90
59660;DHT22;45534;52.690;6.268;2022-12-05T02:53:28;4.70;99.90
59660;DHT22;45534;52.690;6.268;2022-12-05T02:55:56;4.70;99.90
59660;DHT22;45534;52.690;6.268;2022-12-05T02:58:32;4.70;99.90
59660;DHT22;45534;52.690;6.268;2022-12-05T03:00:58;4.70;99.90
59660;DHT22;45534;52.690;6.268;2022-12-05T03:03:25;4.60;99.90
59660;DHT22;45534;52.690;6.268;2022-12-05T03:05:56;4.70;99.90
59660;DHT22;45534;52.690;6.268;2022-12-05T03:08:30;4.70;99.90
59660;DHT22;45534;52.690;6.268;2022-12-05T03:10:57;4.70;99.90
59660;DHT22;45534;52.690;6.268;2022-12-05T03:13:29;4.70;99.90
59660;DHT22;45534;52.690;6.268;2022-12-05T03:15:59;4.70;99.90
59660;DHT22;45534;52.690;6.268;2022-12-05T03:18:30;4.70;99.90
59660;DHT22;45534;52.690;6.268;2022-12-05T03:29:26;4.70;99.90
59660;DHT22;45534;52.690;6.268;2022-12-05T03:32:05;4.70;99.90
59660;DHT22;45534;52.690;6.268;2022-12-05T03:40:17;4.70;99.90
59660;DHT22;45534;52.690;6.268;2022-12-05T03:43:10;4.70;99.90
59660;DHT22;45534;52.690;6.268;2022-12-05T03:45:46;4.70;99.90
59660;DHT22;45534;52.690;6.268;2022-12-05T03:50:51;4.80;99.90
59660;DHT22;45534;52.690;6.268;2022-12-05T03:53:31;4.80;99.90
59660;DHT22;45534;52.690;6.268;2022-12-05T03:56:15;4.70;99.90
59660;DHT22;45534;52.690;6.268;2022-12-05T03:59:06;4.80;99.90
59660;DHT22;45534;52.690;6.268;2022-12-05T04:01:35;4.80;99.90
59660;DHT22;45534;52.690;6.268;2022-12-05T04:04:28;4.80;99.90
59660;DHT22;45534;52.690;6.268;2022-12-05T04:06:57;4.80;99.90
59660;DHT22;45534;52.690;6.268;2022-12-05T04:09:38;4.80;99.90
59660;DHT22;45534;52.690;6.268;2022-12-05T04:12:08;4.80;99.90
59660;DHT22;45534;52.690;6.268;2022-12-05T04:14:38;4.90;99.90
59660;DHT22;45534;52.690;6.268;2022-12-05T04:17:08;4.90;99.90
59660;DHT22;45534;52.690;6.268;2022-12-05T04:19:58;4.90;99.90
59660;DHT22;45534;52.690;6.268;2022-12-05T04:22:44;4.90;99.90
59660;DHT22;45534;52.690;6.268;2022-12-05T04:25:13;5.00;99.90
59660;DHT22;45534;52.690;6.268;2022-12-05T04:31:04;5.00;99.90
59660;DHT22;45534;52.690;6.268;2022-12-05T04:33:47;5.00;99.90
59660;DHT22;45534;52.690;6.268;2022-12-05T04:36:29;5.00;99.90
59660;DHT22;45534;52.690;6.268;2022-12-05T04:39:01;5.00;99.90
59660;DHT22;45534;52.690;6.268;2022-12-05T04:41:33;5.00;99.90
59660;DHT22;45534;52.690;6.268;2022-12-05T04:44:05;5.00;99.90
59660;DHT22;45534;52.690;6.268;2022-12-05T04:46:32;5.00;99.90
59660;DHT22;45534;52.690;6.268;2022-12-05T04:49:00;5.10;99.90
59660;DHT22;45534;52.690;6.268;2022-12-05T04:51:30;5.00;99.90
59660;DHT22;45534;52.690;6.268;2022-12-05T04:53:59;5.10;99.90
59660;DHT22;45534;52.690;6.268;2022-12-05T04:56:29;5.10;99.90
59660;DHT22;45534;52.690;6.268;2022-12-05T04:58:56;5.00;99.90
59660;DHT22;45534;52.690;6.268;2022-12-05T05:01:41;5.00;99.90
59660;DHT22;45534;52.690;6.268;2022-12-05T05:04:16;5.10;99.90
59660;DHT22;45534;52.690;6.268;2022-12-05T05:06:42;5.10;99.90
59660;DHT22;45534;52.690;6.268;2022-12-05T05:09:09;5.10;99.90
59660;DHT22;45534;52.690;6.268;2022-12-05T05:11:35;5.10;99.90
59660;DHT22;45534;52.690;6.268;2022-12-05T05:14:02;5.20;99.90
59660;DHT22;45534;52.690;6.268;2022-12-05T05:16:31;5.10;99.90
59660;DHT22;45534;52.690;6.268;2022-12-05T05:18:57;5.10;99.90
59660;DHT22;45534;52.690;6.268;2022-12-05T05:21:37;5.10;99.90
59660;DHT22;45534;52.690;6.268;2022-12-05T05:24:04;5.10;99.90
59660;DHT22;45534;52.690;6.268;2022-12-05T05:26:34;5.10;99.90
59660;DHT22;45534;52.690;6.268;2022-12-05T05:28:59;5.10;99.90
59660;DHT22;45534;52.690;6.268;2022-12-05T05:31:26;5.10;99.90
59660;DHT22;45534;52.690;6.268;2022-12-05T05:33:53;5.20;99.90
59660;DHT22;45534;52.690;6.268;2022-12-05T05:36:20;5.20;99.90
59660;DHT22;45534;52.690;6.268;2022-12-05T05:38:48;5.20;99.90
59660;DHT22;45534;52.690;6.268;2022-12-05T05:41:19;5.20;99.90
59660;DHT22;45534;52.690;6.268;2022-12-05T05:43:46;5.20;99.90
59660;DHT22;45534;52.690;6.268;2022-12-05T05:46:12;5.20;99.90
59660;DHT22;45534;52.690;6.268;2022-12-05T05:48:39;5.20;99.90
59660;DHT22;45534;52.690;6.268;2022-12-05T05:51:06;5.20;99.90
59660;DHT22;45534;52.690;6.268;2022-12-05T05:53:33;5.20;99.90
59660;DHT22;45534;52.690;6.268;2022-12-05T05:56:03;5.20;99.90
59660;DHT22;45534;52.690;6.268;2022-12-05T05:58:29;5.20;99.90
59660;DHT22;45534;52.690;6.268;2022-12-05T06:01:05;5.30;99.90
59660;DHT22;45534;52.690;6.268;2022-12-05T06:03:30;5.30;99.90
59660;DHT22;45534;52.690;6.268;2022-12-05T06:05:57;5.30;99.90
59660;DHT22;45534;52.690;6.268;2022-12-05T06:08:23;5.30;99.90
59660;DHT22;45534;52.690;6.268;2022-12-05T06:10:49;5.30;99.90
59660;DHT22;45534;52.690;6.268;2022-12-05T06:13:15;5.30;99.90
59660;DHT22;45534;52.690;6.268;2022-12-05T06:15:40;5.30;99.90
59660;DHT22;45534;52.690;6.268;2022-12-05T06:18:06;5.30;99.90
59660;DHT22;45534;52.690;6.268;2022-12-05T06:20:32;5.30;99.90
59660;DHT22;45534;52.690;6.268;2022-12-05T06:22:57;5.30;99.90
59660;DHT22;45534;52.690;6.268;2022-12-05T06:25:23;5.30;99.90
59660;DHT22;45534;52.690;6.268;2022-12-05T06:27:48;5.30;99.90
59660;DHT22;45534;52.690;6.268;2022-12-05T06:30:14;5.40;99.90
59660;DHT22;45534;52.690;6.268;2022-12-05T06:32:40;5.30;99.90
59660;DHT22;45534;52.690;6.268;2022-12-05T06:35:06;5.30;99.90
59660;DHT22;45534;52.690;6.268;2022-12-05T06:37:36;5.30;99.90
59660;DHT22;45534;52.690;6.268;2022-12-05T06:40:03;5.30;99.90
59660;DHT22;45534;52.690;6.268;2022-12-05T06:42:30;5.30;99.90
59660;DHT22;45534;52.690;6.268;2022-12-05T06:44:56;5.30;99.90
59660;DHT22;45534;52.690;6.268;2022-12-05T06:47:21;5.30;99.90
59660;DHT22;45534;52.690;6.268;2022-12-05T06:49:47;5.30;99.90
59660;DHT22;45534;52.690;6.268;2022-12-05T06:52:13;5.30;99.90
59660;DHT22;45534;52.690;6.268;2022-12-05T06:54:38;5.40;99.90
59660;DHT22;45534;52.690;6.268;2022-12-05T06:57:04;5.30;99.90
59660;DHT22;45534;52.690;6.268;2022-12-05T06:59:29;5.40;99.90
59660;DHT22;45534;52.690;6.268;2022-12-05T07:01:55;5.40;99.90
59660;DHT22;45534;52.690;6.268;2022-12-05T07:04:22;5.40;99.90
59660;DHT22;45534;52.690;6.268;2022-12-05T07:06:49;5.40;99.90
59660;DHT22;45534;52.690;6.268;2022-12-05T07:09:16;5.40;99.90
59660;DHT22;45534;52.690;6.268;2022-12-05T07:11:48;5.40;99.90
59660;DHT22;45534;52.690;6.268;2022-12-05T07:14:15;5.40;99.90
59660;DHT22;45534;52.690;6.268;2022-12-05T07:16:41;5.40;99.90
59660;DHT22;45534;52.690;6.268;2022-12-05T07:19:06;5.40;99.90
59660;DHT22;45534;52.690;6.268;2022-12-05T07:21:32;5.40;99.90
59660;DHT22;45534;52.690;6.268;2022-12-05T07:23:58;5.40;99.90
59660;DHT22;45534;52.690;6.268;2022-12-05T07:26:23;5.50;99.90
59660;DHT22;45534;52.690;6.268;2022-12-05T07:28:50;5.40;99.90
59660;DHT22;45534;52.690;6.268;2022-12-05T07:31:19;5.50;99.90
59660;DHT22;45534;52.690;6.268;2022-12-05T07:33:45;5.50;99.90
59660;DHT22;45534;52.690;6.268;2022-12-05T07:36:16;5.40;99.90
59660;DHT22;45534;52.690;6.268;2022-12-05T07:38:43;5.40;99.90
59660;DHT22;45534;52.690;6.268;2022-12-05T07:41:32;5.40;99.90
59660;DHT22;45534;52.690;6.268;2022-12-05T07:43:59;5.40;99.90
59660;DHT22;45534;52.690;6.268;2022-12-05T07:46:26;5.40;99.90
59660;DHT22;45534;52.690;6.268;2022-12-05T07:48:53;5.40;99.90
59660;DHT22;45534;52.690;6.268;2022-12-05T07:51:19;5.40;99.90
59660;DHT22;45534;52.690;6.268;2022-12-05T07:53:45;5.40;99.90
59660;DHT22;45534;52.690;6.268;2022-12-05T07:56:13;5.40;99.90
59660;DHT22;45534;52.690;6.268;2022-12-05T07:58:45;5.40;99.90
59660;DHT22;45534;52.690;6.268;2022-12-05T08:01:13;5.40;99.90
59660;DHT22;45534;52.690;6.268;2022-12-05T08:03:39;5.40;99.90
59660;DHT22;45534;52.690;6.268;2022-12-05T08:06:08;5.40;99.90
59660;DHT22;45534;52.690;6.268;2022-12-05T08:08:34;5.40;99.90
59660;DHT22;45534;52.690;6.268;2022-12-05T08:11:05;5.40;99.90
59660;DHT22;45534;52.690;6.268;2022-12-05T08:13:32;5.50;99.90
59660;DHT22;45534;52.690;6.268;2022-12-05T08:16:05;5.50;99.90
59660;DHT22;45534;52.690;6.268;2022-12-05T08:18:31;5.50;99.90
59660;DHT22;45534;52.690;6.268;2022-12-05T08:21:05;5.50;99.90
59660;DHT22;45534;52.690;6.268;2022-12-05T08:23:31;5.50;99.90
59660;DHT22;45534;52.690;6.268;2022-12-05T08:26:02;5.50;99.90
59660;DHT22;45534;52.690;6.268;2022-12-05T08:28:29;5.50;99.90
59660;DHT22;45534;52.690;6.268;2022-12-05T08:30:54;5.50;99.90
59660;DHT22;45534;52.690;6.268;2022-12-05T08:33:20;5.50;99.90
59660;DHT22;45534;52.690;6.268;2022-12-05T08:35:46;5.50;99.90
59660;DHT22;45534;52.690;6.268;2022-12-05T08:38:11;5.60;99.90
59660;DHT22;45534;52.690;6.268;2022-12-05T08:40:37;5.50;99.90
59660;DHT22;45534;52.690;6.268;2022-12-05T08:43:03;5.60;99.90
59660;DHT22;45534;52.690;6.268;2022-12-05T08:45:28;5.50;99.90
59660;DHT22;45534;52.690;6.268;2022-12-05T08:47:54;5.60;99.90
59660;DHT22;45534;52.690;6.268;2022-12-05T08:50:20;5.60;99.90
59660;DHT22;45534;52.690;6.268;2022-12-05T08:52:45;5.60;99.90
59660;DHT22;45534;52.690;6.268;2022-12-05T08:55:11;5.60;99.90
59660;DHT22;45534;52.690;6.268;2022-12-05T08:57:37;5.60;99.90
59660;DHT22;45534;52.690;6.268;2022-12-05T09:00:03;5.60;99.90
59660;DHT22;45534;52.690;6.268;2022-12-05T09:02:30;5.60;99.90
59660;DHT22;45534;52.690;6.268;2022-12-05T09:04:56;5.60;99.90
59660;DHT22;45534;52.690;6.268;2022-12-05T09:07:21;5.60;99.90
59660;DHT22;45534;52.690;6.268;2022-12-05T09:09:47;5.60;99.90
59660;DHT22;45534;52.690;6.268;2022-12-05T09:12:12;5.60;99.90
59660;DHT22;45534;52.690;6.268;2022-12-05T09:14:39;5.60;99.90
59660;DHT22;45534;52.690;6.268;2022-12-05T09:17:05;5.60;99.90
59660;DHT22;45534;52.690;6.268;2022-12-05T09:19:31;5.60;99.90
59660;DHT22;45534;52.690;6.268;2022-12-05T09:21:57;5.60;99.90
59660;DHT22;45534;52.690;6.268;2022-12-05T09:24:23;5.60;99.90
59660;DHT22;45534;52.690;6.268;2022-12-05T09:26:49;5.60;99.90
59660;DHT22;45534;52.690;6.268;2022-12-05T09:29:15;5.60;99.90
59660;DHT22;45534;52.690;6.268;2022-12-05T09:31:41;5.60;99.90
59660;DHT22;45534;52.690;6.268;2022-12-05T09:34:07;5.60;99.90
59660;DHT22;45534;52.690;6.268;2022-12-05T09:36:33;5.60;99.90
59660;DHT22;45534;52.690;6.268;2022-12-05T09:39:01;5.60;99.90
59660;DHT22;45534;52.690;6.268;2022-12-05T09:49:57;5.60;99.90
59660;DHT22;45534;52.690;6.268;2022-12-05T09:52:36;5.60;99.90
59660;DHT22;45534;52.690;6.268;2022-12-05T09:55:15;5.60;99.90
59660;DHT22;45534;52.690;6.268;2022-12-05T09:57:55;5.60;99.90
59660;DHT22;45534;52.690;6.268;2022-12-05T10:00:22;5.60;99.90
59660;DHT22;45534;52.690;6.268;2022-12-05T10:06:00;5.60;99.90
59660;DHT22;45534;52.690;6.268;2022-12-05T10:08:32;5.50;99.90
59660;DHT22;45534;52.690;6.268;2022-12-05T10:11:06;5.60;99.90
59660;DHT22;45534;52.690;6.268;2022-12-05T10:13:44;5.60;99.90
59660;DHT22;45534;52.690;6.268;2022-12-05T10:16:40;5.60;99.90
59660;DHT22;45534;52.690;6.268;2022-12-05T10:19:23;5.60;99.90
59660;DHT22;45534;52.690;6.268;2022-12-05T10:21:56;5.60;99.90
59660;DHT22;45534;52.690;6.268;2022-12-05T10:24:38;5.60;99.90
59660;DHT22;45534;52.690;6.268;2022-12-05T10:27:07;5.60;99.90
59660;DHT22;45534;52.690;6.268;2022-12-05T10:30:12;5.60;99.90
59660;DHT22;45534;52.690;6.268;2022-12-05T10:32:58;5.50;99.90
59660;DHT22;45534;52.690;6.268;2022-12-05T10:35:42;5.50;99.90
59660;DHT22;45534;52.690;6.268;2022-12-05T10:40:45;5.50;99.90
59660;DHT22;45534;52.690;6.268;2022-12-05T10:43:15;5.50;99.90
59660;DHT22;45534;52.690;6.268;2022-12-05T10:45:43;5.50;99.90
59660;DHT22;45534;52.690;6.268;2022-12-05T10:48:15;5.40;99.90
59660;DHT22;45534;52.690;6.268;2022-12-05T10:50:41;5.40;99.90
59660;DHT22;45534;52.690;6.268;2022-12-05T10:53:14;5.40;99.90
59660;DHT22;45534;52.690;6.268;2022-12-05T10:55:43;5.40;99.90
59660;DHT22;45534;52.690;6.268;2022-12-05T10:58:17;5.40;99.90
59660;DHT22;45534;52.690;6.268;2022-12-05T11:00:48;5.40;99.90
59660;DHT22;45534;52.690;6.268;2022-12-05T11:03:39;5.40;99.90
59660;DHT22;45534;52.690;6.268;2022-12-05T11:06:23;5.40;99.90
59660;DHT22;45534;52.690;6.268;2022-12-05T11:08:52;5.40;99.90
59660;DHT22;45534;52.690;6.268;2022-12-05T11:11:21;5.40;99.90
59660;DHT22;45534;52.690;6.268;2022-12-05T11:13:59;5.30;99.90
59660;DHT22;45534;52.690;6.268;2022-12-05T11:16:34;5.30;99.90
59660;DHT22;45534;52.690;6.268;2022-12-05T11:19:38;5.40;99.90
59660;DHT22;45534;52.690;6.268;2022-12-05T11:22:05;5.30;99.90
59660;DHT22;45534;52.690;6.268;2022-12-05T11:24:37;5.30;99.90
59660;DHT22;45534;52.690;6.268;2022-12-05T11:29:41;5.30;99.90
59660;DHT22;45534;52.690;6.268;2022-12-05T11:32:21;5.30;99.90
59660;DHT22;45534;52.690;6.268;2022-12-05T11:37:41;5.30;99.90
59660;DHT22;45534;52.690;6.268;2022-12-05T11:40:16;5.30;99.90
59660;DHT22;45534;52.690;6.268;2022-12-05T11:43:10;5.30;99.90
59660;DHT22;45534;52.690;6.268;2022-12-05T11:51:19;5.30;99.90
59660;DHT22;45534;52.690;6.268;2022-12-05T11:56:28;5.30;99.90
59660;DHT22;45534;52.690;6.268;2022-12-05T12:07:15;5.30;99.90
59660;DHT22;45534;52.690;6.268;2022-12-05T12:10:15;5.30;99.90
59660;DHT22;45534;52.690;6.268;2022-12-05T12:12:58;5.30;99.90
59660;DHT22;45534;52.690;6.268;2022-12-05T12:25:14;5.30;99.90
59660;DHT22;45534;52.690;6.268;2022-12-05T12:27:45;5.30;99.90
59660;DHT22;45534;52.690;6.268;2022-12-05T12:30:23;5.30;99.90
59660;DHT22;45534;52.690;6.268;2022-12-05T12:35:28;5.30;99.90
59660;DHT22;45534;52.690;6.268;2022-12-05T12:41:20;5.30;99.90
59660;DHT22;45534;52.690;6.268;2022-12-05T12:52:01;5.30;99.90
59660;DHT22;45534;52.690;6.268;2022-12-05T12:57:07;5.30;99.90
59660;DHT22;45534;52.690;6.268;2022-12-05T12:59:48;5.40;99.90
59660;DHT22;45534;52.690;6.268;2022-12-05T13:02:43;5.30;99.90
59660;DHT22;45534;52.690;6.268;2022-12-05T13:05:32;5.40;99.90
59660;DHT22;45534;52.690;6.268;2022-12-05T13:08:05;5.40;99.90
59660;DHT22;45534;52.690;6.268;2022-12-05T13:10:38;5.40;99.90
59660;DHT22;45534;52.690;6.268;2022-12-05T13:13:05;5.40;99.90
59660;DHT22;45534;52.690;6.268;2022-12-05T13:15:38;5.40;99.90
59660;DHT22;45534;52.690;6.268;2022-12-05T13:18:15;5.40;99.90
59660;DHT22;45534;52.690;6.268;2022-12-05T13:20:41;5.40;99.90
59660;DHT22;45534;52.690;6.268;2022-12-05T13:23:06;5.40;99.90
59660;DHT22;45534;52.690;6.268;2022-12-05T13:25:38;5.40;99.90
59660;DHT22;45534;52.690;6.268;2022-12-05T13:28:20;5.40;99.90
59660;DHT22;45534;52.690;6.268;2022-12-05T13:30:48;5.40;99.90
59660;DHT22;45534;52.690;6.268;2022-12-05T13:33:33;5.40;99.90
59660;DHT22;45534;52.690;6.268;2022-12-05T13:36:29;5.40;99.90
59660;DHT22;45534;52.690;6.268;2022-12-05T13:39:18;5.40;99.90
59660;DHT22;45534;52.690;6.268;2022-12-05T13:42:04;5.40;99.90
59660;DHT22;45534;52.690;6.268;2022-12-05T13:45:28;5.40;99.90
59660;DHT22;45534;52.690;6.268;2022-12-05T13:50:14;5.40;99.90
59660;DHT22;45534;52.690;6.268;2022-12-05T13:52:44;5.40;99.90
59660;DHT22;45534;52.690;6.268;2022-12-05T13:55:31;5.40;99.90
59660;DHT22;45534;52.690;6.268;2022-12-05T13:57:58;5.40;99.90
59660;DHT22;45534;52.690;6.268;2022-12-05T14:00:33;5.40;99.90
59660;DHT22;45534;52.690;6.268;2022-12-05T14:05:59;5.40;99.90
59660;DHT22;45534;52.690;6.268;2022-12-05T14:15:50;5.40;99.90
59660;DHT22;45534;52.690;6.268;2022-12-05T14:34:23;5.40;99.90
59660;DHT22;45534;52.690;6.268;2022-12-05T14:39:39;5.40;99.90
59660;DHT22;45534;52.690;6.268;2022-12-05T14:44:52;5.40;99.90
59660;DHT22;45534;52.690;6.268;2022-12-05T14:47:28;5.40;99.90
59660;DHT22;45534;52.690;6.268;2022-12-05T14:49:58;5.40;99.90
59660;DHT22;45534;52.690;6.268;2022-12-05T14:52:28;5.40;99.90
59660;DHT22;45534;52.690;6.268;2022-12-05T14:55:04;5.40;99.90
59660;DHT22;45534;52.690;6.268;2022-12-05T14:57:31;5.30;99.90
59660;DHT22;45534;52.690;6.268;2022-12-05T15:00:03;5.40;99.90
59660;DHT22;45534;52.690;6.268;2022-12-05T15:02:35;5.40;99.90
59660;DHT22;45534;52.690;6.268;2022-12-05T15:07:42;5.30;99.90
59660;DHT22;45534;52.690;6.268;2022-12-05T15:10:13;5.30;99.90
59660;DHT22;45534;52.690;6.268;2022-12-05T15:17:53;5.30;99.90
59660;DHT22;45534;52.690;6.268;2022-12-05T15:23:48;5.30;99.90
59660;DHT22;45534;52.690;6.268;2022-12-05T15:31:56;5.30;99.90
59660;DHT22;45534;52.690;6.268;2022-12-05T15:34:52;5.30;99.90
59660;DHT22;45534;52.690;6.268;2022-12-05T15:40:14;5.30;99.90
59660;DHT22;45534;52.690;6.268;2022-12-05T15:47:42;5.20;99.90
59660;DHT22;45534;52.690;6.268;2022-12-05T15:50:24;5.20;99.90
59660;DHT22;45534;52.690;6.268;2022-12-05T15:58:34;5.20;99.90
59660;DHT22;45534;52.690;6.268;2022-12-05T16:03:45;5.20;99.90
59660;DHT22;45534;52.690;6.268;2022-12-05T16:06:16;5.20;99.90
59660;DHT22;45534;52.690;6.268;2022-12-05T16:08:46;5.20;99.90
59660;DHT22;45534;52.690;6.268;2022-12-05T16:11:13;5.20;99.90
59660;DHT22;45534;52.690;6.268;2022-12-05T16:13:46;5.20;99.90
59660;DHT22;45534;52.690;6.268;2022-12-05T16:16:16;5.20;99.90
59660;DHT22;45534;52.690;6.268;2022-12-05T16:18:53;5.30;99.90
59660;DHT22;45534;52.690;6.268;2022-12-05T16:24:26;5.30;99.90
59660;DHT22;45534;52.690;6.268;2022-12-05T16:27:11;5.30;99.90
59660;DHT22;45534;52.690;6.268;2022-12-05T16:29:38;5.30;99.90
59660;DHT22;45534;52.690;6.268;2022-12-05T16:32:13;5.20;99.90
59660;DHT22;45534;52.690;6.268;2022-12-05T16:34:39;5.20;99.90
59660;DHT22;45534;52.690;6.268;2022-12-05T16:37:14;5.20;99.90
59660;DHT22;45534;52.690;6.268;2022-12-05T16:39:43;5.30;99.90
59660;DHT22;45534;52.690;6.268;2022-12-05T16:42:35;5.20;99.90
59660;DHT22;45534;52.690;6.268;2022-12-05T16:45:02;5.20;99.90
59660;DHT22;45534;52.690;6.268;2022-12-05T16:50:31;5.30;99.90
59660;DHT22;45534;52.690;6.268;2022-12-05T16:53:17;5.30;99.90
59660;DHT22;45534;52.690;6.268;2022-12-05T16:55:43;5.30;99.90
59660;DHT22;45534;52.690;6.268;2022-12-05T16:58:18;5.30;99.90
59660;DHT22;45534;52.690;6.268;2022-12-05T17:00:44;5.30;99.90
59660;DHT22;45534;52.690;6.268;2022-12-05T17:03:11;5.30;99.90
59660;DHT22;45534;52.690;6.268;2022-12-05T17:05:37;5.30;99.90
59660;DHT22;45534;52.690;6.268;2022-12-05T17:08:03;5.30;99.90
59660;DHT22;45534;52.690;6.268;2022-12-05T17:10:29;5.20;99.90
59660;DHT22;45534;52.690;6.268;2022-12-05T17:12:54;5.20;99.90
59660;DHT22;45534;52.690;6.268;2022-12-05T17:15:20;5.20;99.90
59660;DHT22;45534;52.690;6.268;2022-12-05T17:17:46;5.20;99.90
59660;DHT22;45534;52.690;6.268;2022-12-05T17:20:12;5.30;99.90
59660;DHT22;45534;52.690;6.268;2022-12-05T17:22:39;5.30;99.90
59660;DHT22;45534;52.690;6.268;2022-12-05T17:25:17;5.30;99.90
59660;DHT22;45534;52.690;6.268;2022-12-05T17:27:44;5.30;99.90
59660;DHT22;45534;52.690;6.268;2022-12-05T17:30:10;5.30;99.90
59660;DHT22;45534;52.690;6.268;2022-12-05T17:32:36;5.20;99.90
59660;DHT22;45534;52.690;6.268;2022-12-05T17:35:01;5.20;99.90
59660;DHT22;45534;52.690;6.268;2022-12-05T17:37:27;5.30;99.90
59660;DHT22;45534;52.690;6.268;2022-12-05T17:39:52;5.30;99.90
59660;DHT22;45534;52.690;6.268;2022-12-05T17:42:18;5.30;99.90
59660;DHT22;45534;52.690;6.268;2022-12-05T17:44:44;5.20;99.90
59660;DHT22;45534;52.690;6.268;2022-12-05T17:47:09;5.20;99.90
59660;DHT22;45534;52.690;6.268;2022-12-05T17:49:35;5.20;99.90
59660;DHT22;45534;52.690;6.268;2022-12-05T17:52:01;5.20;99.90
59660;DHT22;45534;52.690;6.268;2022-12-05T17:54:29;5.20;99.90
59660;DHT22;45534;52.690;6.268;2022-12-05T17:56:54;5.20;99.90
59660;DHT22;45534;52.690;6.268;2022-12-05T17:59:20;5.20;99.90
59660;DHT22;45534;52.690;6.268;2022-12-05T18:01:46;5.20;99.90
59660;DHT22;45534;52.690;6.268;2022-12-05T18:04:11;5.20;99.90
59660;DHT22;45534;52.690;6.268;2022-12-05T18:06:37;5.20;99.90
59660;DHT22;45534;52.690;6.268;2022-12-05T18:09:04;5.20;99.90
59660;DHT22;45534;52.690;6.268;2022-12-05T18:11:29;5.20;99.90
59660;DHT22;45534;52.690;6.268;2022-12-05T18:13:55;5.20;99.90
59660;DHT22;45534;52.690;6.268;2022-12-05T18:16:21;5.10;99.90
59660;DHT22;45534;52.690;6.268;2022-12-05T18:18:46;5.20;99.90
59660;DHT22;45534;52.690;6.268;2022-12-05T18:21:12;5.10;99.90
59660;DHT22;45534;52.690;6.268;2022-12-05T18:23:39;5.10;99.90
59660;DHT22;45534;52.690;6.268;2022-12-05T18:26:06;5.10;99.90
59660;DHT22;45534;52.690;6.268;2022-12-05T18:28:34;5.10;99.90
59660;DHT22;45534;52.690;6.268;2022-12-05T18:31:08;5.10;99.90
59660;DHT22;45534;52.690;6.268;2022-12-05T18:33:34;5.20;99.90
59660;DHT22;45534;52.690;6.268;2022-12-05T18:36:04;5.10;99.90
59660;DHT22;45534;52.690;6.268;2022-12-05T18:38:30;5.10;99.90
59660;DHT22;45534;52.690;6.268;2022-12-05T18:41:00;5.20;99.90
59660;DHT22;45534;52.690;6.268;2022-12-05T18:43:26;5.20;99.90
59660;DHT22;45534;52.690;6.268;2022-12-05T18:45:56;5.20;99.90
59660;DHT22;45534;52.690;6.268;2022-12-05T18:48:22;5.20;99.90
59660;DHT22;45534;52.690;6.268;2022-12-05T18:50:48;5.20;99.90
59660;DHT22;45534;52.690;6.268;2022-12-05T18:53:14;5.20;99.90
59660;DHT22;45534;52.690;6.268;2022-12-05T18:55:39;5.20;99.90
59660;DHT22;45534;52.690;6.268;2022-12-05T18:58:05;5.20;99.90
59660;DHT22;45534;52.690;6.268;2022-12-05T19:00:31;5.20;99.90
59660;DHT22;45534;52.690;6.268;2022-12-05T19:02:57;5.20;99.90
59660;DHT22;45534;52.690;6.268;2022-12-05T19:05:22;5.20;99.90